2019-01-03: I've managed 25 fixes since 2021-08-24 ... Access to schools will be difficult again next week because of the pandemic. Get vaccinated! and thanks for your ongoing patience.
temperature
    1     20.00  2021 09 24 14 51   48.46990  236.68100     5
    3     22.00  2021 09 24 14 51   48.47760  236.58299     1
    4     20.90  2021 09 24 14 51   48.44080  236.66100     1
    5     20.80  2021 09 24 14 51   48.46600  236.66299     1
    6     21.90  2021 09 24 14 51   48.46160  236.59200     1
    7     20.10  2021 09 24 14 51   48.46550  236.67900     1
    9     19.30  2021 09 24 14 51   48.46510  236.70000     1
   11     21.30  2021 09 24 14 51   48.41690  236.62000     1
   12     21.10  2021 09 24 14 51   48.43460  236.61200     1
   13     22.90  2021 09 24 14 51   48.45330  236.57401     1
   16     21.80  2021 09 24 14 51   48.45190  236.60699     1
   17     22.10  2021 09 24 14 51   48.46630  236.55800     1
   18     18.80  2021 09 24 14 51   48.48650  236.67599     1
   19     22.20  2021 09 24 14 51   48.41820  236.68600     1
   20     21.60  2021 09 24 14 51   48.47880  236.63499     1
   21     20.60  2021 09 24 14 51   48.47440  236.61900     1
   22     20.90  2021 09 24 14 51   48.45340  236.64101     1
   24     18.90  2021 09 24 14 51   48.48490  236.68600     1
   25     20.90  2021 09 24 14 51   48.44510  236.67200     1
   26     20.30  2021 09 24 14 51   48.45620  236.66200     1
   27     20.90  2021 09 24 14 51   48.47690  236.60899     1
   29     21.30  2021 09 24 14 51   48.43290  236.64900     1
   32     22.00  2021 09 24 14 51   48.43560  236.51401     3
   33     20.70  2021 09 24 14 51   48.46830  236.64101     1
   34     22.90  2021 09 24 14 51   48.45290  236.52299     3
   35     21.80  2021 09 24 14 51   48.44280  236.50400     3
   37     19.60  2021 09 24 14 51   48.37100  236.25000     3
   39     22.20  2021 09 24 14 51   48.46550  236.49400     3
   40     23.00  2021 09 24 14 51   48.45150  236.49500     3
   41     20.80  2021 09 24 14 51   48.42810  236.63400     2
   42     21.90  2021 09 24 14 51   48.56210  236.53400     2
   43     19.40  2021 09 24 14 51   48.45220  236.73300     5
   55     22.00  2021 09 24 14 51   48.44880  236.51401     3
   57     19.80  2021 09 24 14 51   48.42180  236.50500     3
   60     21.70  2021 09 24 14 51   48.43820  236.60400     1
   64     19.40  2021 09 24 14 51   48.50140  236.63901     4
   66     22.60  2021 09 24 14 51   48.52340  236.56700     4
   68     21.40  2021 09 24 14 51   48.56970  236.54700     4
   71     21.60  2021 09 24 14 51   48.53760  236.49899    11
   72     15.20  2021 09 24 14 51   48.29838  236.46838     5
   73     22.30  2021 09 24 14 51   48.45370  236.57899     1
   74     21.30  2021 09 24 14 51   48.44560  236.63901     1
   75     21.00  2021 09 24 14 51   48.42350  236.65300     1
   77     20.90  2021 09 24 14 51   48.46690  236.60800     1
   79     19.40  2021 09 24 14 51   48.47130  236.69299     1
   80     18.40  2021 09 24 14 51   48.48210  236.67000     1
   82     20.50  2021 09 24 14 51   48.46080  236.60699     1
   89     18.80  2021 09 24 14 51   49.31120  235.67300    21
   90     22.40  2021 09 24 14 51   48.45710  236.56300     1
   93     22.70  2021 09 24 14 51   48.65380  236.37601    14
   95     18.30  2021 09 24 14 51   49.34850  235.59900    21
   96     17.90  2021 09 24 14 51   49.44590  235.30099    21
   98     22.70  2021 09 24 14 51   48.41610  236.67000     1
   99     21.20  2021 09 24 14 51   48.51100  236.53600    11
  100     23.20  2021 09 24 14 51   48.48110  236.48700    11
  101     21.30  2021 09 24 14 51   48.51010  236.47600    11
  104     22.20  2021 09 24 14 51   48.42810  236.47099     3
  105     21.00  2021 09 24 14 51   48.55650  235.60100     3
  107     24.10  2021 09 24 14 51   48.46610  236.50400     3
  108     24.60  2021 09 24 14 51   49.24600  235.19600    23
  110     18.10  2021 09 24 14 51   49.27380  235.80901    21
  112     19.40  2021 09 24 14 51   48.79430  236.82700    40
  115     21.70  2021 09 24 14 51   48.43210  236.59801     5
  119     20.70  2021 09 24 14 51   48.90720  236.46100    40
  121     20.20  2021 09 24 14 51   48.85540  236.49300    40
  122     19.70  2021 09 24 14 51   48.85030  236.49400    40
  125     21.50  2021 09 24 14 51   48.43350  236.67599     5
  132     21.30  2021 09 24 14 51   48.61540  236.36900    14
  133     23.60  2021 09 24 14 51   48.65230  236.34900    10
  134     21.70  2021 09 24 14 51   48.46480  236.62601     5
  139     17.40  2021 09 24 14 51   49.23280  236.03200    20
  143     19.80  2021 09 24 14 51   48.46230  236.69099     5
  144     20.70  2021 09 24 14 51   48.43940  236.64999     5
  162     20.80  2021 09 24 14 51   48.45240  236.67101     5
  163     20.10  2021 09 24 14 51   48.46480  236.68600     5
  165     24.10  2021 09 24 14 51   49.26100  235.19299    60
  166     23.40  2021 09 24 14 51   49.22710  235.20799    60
  177     20.00  2021 09 24 14 51   48.98460  236.17200    20
  178      1.80  2021 09 24 14 51   64.06090  225.57001    81
  179     23.00  2021 09 24 14 51   49.78270  233.94901    70
  182     17.20  2021 09 24 14 51   49.20990  236.04500    23
  188     19.60  2021 09 24 14 51   48.66570  236.58200     4
  190     17.70  2021 09 24 14 51   49.68220  235.00101    30
  191     19.80  2021 09 24 14 51   49.62120  234.96700    30
  192     18.60  2021 09 24 14 51   49.53550  235.18401    30
  197     22.20  2021 09 24 14 51   48.52190  236.58000     5
  199     16.40  2021 09 24 14 51   48.39510  236.69501     5
  200     21.00  2021 09 24 14 51   48.48800  236.67300     5
  205     17.20  2021 09 24 14 51   49.96700  234.78400    35
  207     19.30  2021 09 24 14 51   49.98010  234.75500    35
  210     19.30  2021 09 24 14 51   50.02080  234.75400    35
  211     19.30  2021 09 24 14 51   50.05990  235.01700    35
  212     20.00  2021 09 24 14 51   50.37740  234.04201    35
  215     21.10  2021 09 24 14 51   48.46180  236.59500     5
  216     24.20  2021 09 24 14 51   49.17440  237.15300    80
  217     20.30  2021 09 24 14 51   48.45190  236.70399     5
  218     18.90  2021 09 24 14 51   49.32200  235.65700    21
  227     21.10  2021 09 24 14 51   48.52524  236.61111     5
  228     20.50  2021 09 24 14 51   48.43951  236.62003     5
  234     19.60  2021 09 24 14 51   48.88760  236.62149    45
  235     20.90  2021 09 24 14 51   48.92833  236.53203    45
  236     17.50  2021 09 24 14 51   48.90087  236.65764    45
  238     21.20  2021 09 24 14 51   48.88512  236.64799    45
  273     16.80  2021 09 24 14 51   48.70929  236.58862    40
humidity
    1     53.00  2021 09 24 14 51   48.46990  236.68100     5
    3     48.00  2021 09 24 14 51   48.47760  236.58299     1
    4     50.00  2021 09 24 14 51   48.44080  236.66100     1
    5     52.00  2021 09 24 14 51   48.46600  236.66299     1
    6     55.00  2021 09 24 14 51   48.46160  236.59200     1
    7     63.00  2021 09 24 14 51   48.46550  236.67900     1
    9     61.00  2021 09 24 14 51   48.46510  236.70000     1
   11     50.00  2021 09 24 14 51   48.41690  236.62000     1
   12     55.00  2021 09 24 14 51   48.43460  236.61200     1
   13     48.00  2021 09 24 14 51   48.45330  236.57401     1
   16     51.00  2021 09 24 14 51   48.45190  236.60699     1
   17     48.00  2021 09 24 14 51   48.46630  236.55800     1
   18     61.00  2021 09 24 14 51   48.48650  236.67599     1
   19     55.00  2021 09 24 14 51   48.41820  236.68600     1
   20     51.00  2021 09 24 14 51   48.47880  236.63499     1
   21     58.00  2021 09 24 14 51   48.47440  236.61900     1
   22     57.00  2021 09 24 14 51   48.45340  236.64101     1
   25     59.00  2021 09 24 14 51   48.44510  236.67200     1
   26     62.00  2021 09 24 14 51   48.45620  236.66200     1
   27     58.00  2021 09 24 14 51   48.47690  236.60899     1
   29     56.00  2021 09 24 14 51   48.43290  236.64900     1
   31     68.00  2021 09 24 14 51   48.42050  236.51401     3
   33     62.00  2021 09 24 14 51   48.46830  236.64101     1
   34     49.00  2021 09 24 14 51   48.45290  236.52299     3
   35     53.00  2021 09 24 14 51   48.44280  236.50400     3
   37     65.00  2021 09 24 14 51   48.37100  236.25000     3
   39     56.00  2021 09 24 14 51   48.46550  236.49400     3
   40     43.00  2021 09 24 14 51   48.45150  236.49500     3
   41     48.00  2021 09 24 14 51   48.42810  236.63400     2
   42     58.00  2021 09 24 14 51   48.56210  236.53400     2
   43     62.00  2021 09 24 14 51   48.45220  236.73300     5
   57     57.00  2021 09 24 14 51   48.42180  236.50500     3
   64     67.00  2021 09 24 14 51   48.50140  236.63901     4
   68     54.00  2021 09 24 14 51   48.56970  236.54700     4
   72     15.00  2021 09 24 14 51   48.29838  236.46838     5
   73     66.00  2021 09 24 14 51   48.45370  236.57899     1
   74     56.00  2021 09 24 14 51   48.44560  236.63901     1
   75     59.00  2021 09 24 14 51   48.42350  236.65300     1
   77     56.00  2021 09 24 14 51   48.46690  236.60800     1
   79     66.00  2021 09 24 14 51   48.47130  236.69299     1
   80     67.00  2021 09 24 14 51   48.48210  236.67000     1
   82     59.00  2021 09 24 14 51   48.46080  236.60699     1
   89     55.00  2021 09 24 14 51   49.31120  235.67300    21
   90     48.00  2021 09 24 14 51   48.45710  236.56300     1
   93     59.00  2021 09 24 14 51   48.65380  236.37601    14
   95     77.00  2021 09 24 14 51   49.34850  235.59900    21
   96     74.00  2021 09 24 14 51   49.44590  235.30099    21
   98     47.00  2021 09 24 14 51   48.41610  236.67000     1
   99     55.00  2021 09 24 14 51   48.51100  236.53600    11
  100     50.00  2021 09 24 14 51   48.48110  236.48700    11
  101     55.00  2021 09 24 14 51   48.51010  236.47600    11
  104     42.00  2021 09 24 14 51   48.42810  236.47099     3
  105     62.00  2021 09 24 14 51   48.55650  235.60100     3
  107     41.00  2021 09 24 14 51   48.46610  236.50400     3
  108     48.00  2021 09 24 14 51   49.24600  235.19600    23
  112     69.00  2021 09 24 14 51   48.79430  236.82700    40
  121     64.00  2021 09 24 14 51   48.85540  236.49300    40
  122     55.00  2021 09 24 14 51   48.85030  236.49400    40
  125     57.00  2021 09 24 14 51   48.43350  236.67599     5
  132     60.00  2021 09 24 14 51   48.61540  236.36900    14
  133     53.00  2021 09 24 14 51   48.65230  236.34900    10
  134     61.00  2021 09 24 14 51   48.46480  236.62601     5
  139     74.00  2021 09 24 14 51   49.23280  236.03200    20
  143     57.00  2021 09 24 14 51   48.46230  236.69099     5
  144     60.00  2021 09 24 14 51   48.43940  236.64999     5
  162     60.00  2021 09 24 14 51   48.45240  236.67101     5
  163     62.00  2021 09 24 14 51   48.46480  236.68600     5
  165     51.00  2021 09 24 14 51   49.26100  235.19299    60
  166     48.00  2021 09 24 14 51   49.22710  235.20799    60
  178     90.00  2021 09 24 14 51   64.06090  225.57001    81
  182     80.00  2021 09 24 14 51   49.20990  236.04500    23
  188     65.00  2021 09 24 14 51   48.66570  236.58200     4
  190     75.00  2021 09 24 14 51   49.68220  235.00101    30
  191     66.00  2021 09 24 14 51   49.62120  234.96700    30
  192     70.00  2021 09 24 14 51   49.53550  235.18401    30
  197     55.00  2021 09 24 14 51   48.52190  236.58000     5
  199     69.00  2021 09 24 14 51   48.39510  236.69501     5
  200     64.00  2021 09 24 14 51   48.48800  236.67300     5
  205     61.00  2021 09 24 14 51   49.96700  234.78400    35
  207     54.00  2021 09 24 14 51   49.98010  234.75500    35
  210     65.00  2021 09 24 14 51   50.02080  234.75400    35
  211     70.00  2021 09 24 14 51   50.05990  235.01700    35
  212     66.00  2021 09 24 14 51   50.37740  234.04201    35
  215     57.00  2021 09 24 14 51   48.46180  236.59500     5
  216     59.00  2021 09 24 14 51   49.17440  237.15300    80
  217     64.00  2021 09 24 14 51   48.45190  236.70399     5
  218     69.00  2021 09 24 14 51   49.32200  235.65700    21
  227     62.00  2021 09 24 14 51   48.52524  236.61111     5
  228     61.00  2021 09 24 14 51   48.43951  236.62003     5
  234     65.00  2021 09 24 14 51   48.88760  236.62149    45
  235     52.00  2021 09 24 14 51   48.92833  236.53203    45
  236     80.00  2021 09 24 14 51   48.90087  236.65764    45
  238     60.00  2021 09 24 14 51   48.88512  236.64799    45
  273     75.00  2021 09 24 14 51   48.70929  236.58862    40
wind
    1      3.40  2021 09 24 14 51   48.46990  236.68100     5
    3      0.40  2021 09 24 14 51   48.47760  236.58299     1
    4      0.20  2021 09 24 14 51   48.44080  236.66100     1
    5      0.00  2021 09 24 14 51   48.46600  236.66299     1
    6      0.00  2021 09 24 14 51   48.46160  236.59200     1
    7      3.40  2021 09 24 14 51   48.46550  236.67900     1
    9      0.00  2021 09 24 14 51   48.46510  236.70000     1
   10      2.10  2021 09 24 14 51   48.42530  236.59500     1
   11      0.00  2021 09 24 14 51   48.41690  236.62000     1
   12      0.40  2021 09 24 14 51   48.43460  236.61200     1
   13      0.00  2021 09 24 14 51   48.45330  236.57401     1
   16      0.00  2021 09 24 14 51   48.45190  236.60699     1
   17      0.00  2021 09 24 14 51   48.46630  236.55800     1
   18      0.00  2021 09 24 14 51   48.48650  236.67599     1
   19      0.00  2021 09 24 14 51   48.41820  236.68600     1
   20      0.00  2021 09 24 14 51   48.47880  236.63499     1
   21      0.00  2021 09 24 14 51   48.47440  236.61900     1
   22      0.00  2021 09 24 14 51   48.45340  236.64101     1
   24      0.00  2021 09 24 14 51   48.48490  236.68600     1
   25      2.60  2021 09 24 14 51   48.44510  236.67200     1
   26      0.00  2021 09 24 14 51   48.45620  236.66200     1
   27      1.10  2021 09 24 14 51   48.47690  236.60899     1
   29      0.00  2021 09 24 14 51   48.43290  236.64900     1
   31      1.00  2021 09 24 14 51   48.42050  236.51401     3
   33      1.00  2021 09 24 14 51   48.46830  236.64101     1
   34      1.10  2021 09 24 14 51   48.45290  236.52299     3
   35      1.10  2021 09 24 14 51   48.44280  236.50400     3
   37      1.50  2021 09 24 14 51   48.37100  236.25000     3
   39      0.50  2021 09 24 14 51   48.46550  236.49400     3
   40      1.50  2021 09 24 14 51   48.45150  236.49500     3
   41      1.90  2021 09 24 14 51   48.42810  236.63400     2
   42      1.10  2021 09 24 14 51   48.56210  236.53400     2
   43      0.00  2021 09 24 14 51   48.45220  236.73300     5
   55      0.10  2021 09 24 14 51   48.44880  236.51401     3
   57      0.00  2021 09 24 14 51   48.42180  236.50500     3
   60      2.80  2021 09 24 14 51   48.43820  236.60400     1
   64      0.00  2021 09 24 14 51   48.50140  236.63901     4
   66      1.60  2021 09 24 14 51   48.52340  236.56700     4
   68      0.70  2021 09 24 14 51   48.56970  236.54700     4
   71      0.00  2021 09 24 14 51   48.53760  236.49899    11
   72      3.20  2021 09 24 14 51   48.29838  236.46838     5
   73      1.00  2021 09 24 14 51   48.45370  236.57899     1
   74      1.30  2021 09 24 14 51   48.44560  236.63901     1
   75      2.80  2021 09 24 14 51   48.42350  236.65300     1
   77      2.40  2021 09 24 14 51   48.46690  236.60800     1
   79      2.10  2021 09 24 14 51   48.47130  236.69299     1
   80      2.70  2021 09 24 14 51   48.48210  236.67000     1
   82      0.00  2021 09 24 14 51   48.46080  236.60699     1
   89      0.50  2021 09 24 14 51   49.31120  235.67300    21
   90      0.00  2021 09 24 14 51   48.45710  236.56300     1
   93      1.10  2021 09 24 14 51   48.65380  236.37601    14
   95      0.00  2021 09 24 14 51   49.34850  235.59900    21
   96      1.30  2021 09 24 14 51   49.44590  235.30099    21
   98      0.90  2021 09 24 14 51   48.41610  236.67000     1
   99      0.60  2021 09 24 14 51   48.51100  236.53600    11
  100      0.00  2021 09 24 14 51   48.48110  236.48700    11
  101      0.00  2021 09 24 14 51   48.51010  236.47600    11
  104      0.00  2021 09 24 14 51   48.42810  236.47099     3
  105      0.30  2021 09 24 14 51   48.55650  235.60100     3
  108      1.80  2021 09 24 14 51   49.24600  235.19600    23
  110      0.00  2021 09 24 14 51   49.27380  235.80901    21
  112      0.80  2021 09 24 14 51   48.79430  236.82700    40
  115      1.90  2021 09 24 14 51   48.43210  236.59801     5
  119      0.90  2021 09 24 14 51   48.90720  236.46100    40
  121      1.60  2021 09 24 14 51   48.85540  236.49300    40
  122      0.60  2021 09 24 14 51   48.85030  236.49400    40
  125      0.00  2021 09 24 14 51   48.43350  236.67599     5
  132      0.00  2021 09 24 14 51   48.61540  236.36900    14
  133      1.20  2021 09 24 14 51   48.65230  236.34900    10
  139      0.00  2021 09 24 14 51   49.23280  236.03200    20
  143      2.10  2021 09 24 14 51   48.46230  236.69099     5
  144      1.50  2021 09 24 14 51   48.43940  236.64999     5
  162      2.50  2021 09 24 14 51   48.45240  236.67101     5
  163      2.30  2021 09 24 14 51   48.46480  236.68600     5
  165      0.00  2021 09 24 14 51   49.26100  235.19299    60
  166      0.00  2021 09 24 14 51   49.22710  235.20799    60
  177      1.80  2021 09 24 14 51   48.98460  236.17200    20
  178      0.00  2021 09 24 14 51   64.06090  225.57001    81
  179      2.50  2021 09 24 14 51   49.78270  233.94901    70
  182      0.10  2021 09 24 14 51   49.20990  236.04500    23
  188      1.60  2021 09 24 14 51   48.66570  236.58200     4
  189      1.30  2021 09 24 14 51   49.70950  235.08600    30
  190      0.00  2021 09 24 14 51   49.68220  235.00101    30
  191      0.00  2021 09 24 14 51   49.62120  234.96700    30
  192      2.00  2021 09 24 14 51   49.53550  235.18401    30
  197      0.40  2021 09 24 14 51   48.52190  236.58000     5
  199      3.50  2021 09 24 14 51   48.39510  236.69501     5
  200      0.40  2021 09 24 14 51   48.48800  236.67300     5
  204      0.00  2021 09 24 14 51   49.94130  234.80499    35
  205      0.00  2021 09 24 14 51   49.96700  234.78400    35
  206      0.00  2021 09 24 14 51   49.97270  234.76100    35
  207      0.00  2021 09 24 14 51   49.98010  234.75500    35
  208      0.00  2021 09 24 14 51   50.02360  234.72600    35
  210      0.70  2021 09 24 14 51   50.02080  234.75400    35
  211      0.00  2021 09 24 14 51   50.05990  235.01700    35
  212      0.00  2021 09 24 14 51   50.37740  234.04201    35
  215      0.00  2021 09 24 14 51   48.46180  236.59500     5
  216      0.00  2021 09 24 14 51   49.17440  237.15300    80
  217      2.40  2021 09 24 14 51   48.45190  236.70399     5
  218      0.00  2021 09 24 14 51   49.32200  235.65700    21
  227      0.20  2021 09 24 14 51   48.52524  236.61111     5
  228      2.60  2021 09 24 14 51   48.43951  236.62003     5
  234      0.10  2021 09 24 14 51   48.88760  236.62149    45
  235      1.20  2021 09 24 14 51   48.92833  236.53203    45
  236      0.00  2021 09 24 14 51   48.90087  236.65764    45
  238      0.60  2021 09 24 14 51   48.88512  236.64799    45
  273      1.10  2021 09 24 14 51   48.70929  236.58862    40
winddir
    1     36.00  2021 09 24 14 51   48.46990  236.68100     5
    3     16.00  2021 09 24 14 51   48.47760  236.58299     1
    4    336.00  2021 09 24 14 51   48.44080  236.66100     1
    5      9.00  2021 09 24 14 51   48.46600  236.66299     1
    6     65.00  2021 09 24 14 51   48.46160  236.59200     1
    7     10.00  2021 09 24 14 51   48.46550  236.67900     1
    9     71.00  2021 09 24 14 51   48.46510  236.70000     1
   10     46.00  2021 09 24 14 51   48.42530  236.59500     1
   11     11.00  2021 09 24 14 51   48.41690  236.62000     1
   12      2.00  2021 09 24 14 51   48.43460  236.61200     1
   13     34.00  2021 09 24 14 51   48.45330  236.57401     1
   16    360.00  2021 09 24 14 51   48.45190  236.60699     1
   17     18.00  2021 09 24 14 51   48.46630  236.55800     1
   18     15.00  2021 09 24 14 51   48.48650  236.67599     1
   19     19.00  2021 09 24 14 51   48.41820  236.68600     1
   20     35.00  2021 09 24 14 51   48.47880  236.63499     1
   21     31.00  2021 09 24 14 51   48.47440  236.61900     1
   22    360.00  2021 09 24 14 51   48.45340  236.64101     1
   24    348.00  2021 09 24 14 51   48.48490  236.68600     1
   25     44.00  2021 09 24 14 51   48.44510  236.67200     1
   26     32.00  2021 09 24 14 51   48.45620  236.66200     1
   27     28.00  2021 09 24 14 51   48.47690  236.60899     1
   29    348.00  2021 09 24 14 51   48.43290  236.64900     1
   31    126.00  2021 09 24 14 51   48.42050  236.51401     3
   32    177.00  2021 09 24 14 51   48.43560  236.51401     3
   33     10.00  2021 09 24 14 51   48.46830  236.64101     1
   34    360.00  2021 09 24 14 51   48.45290  236.52299     3
   35    331.00  2021 09 24 14 51   48.44280  236.50400     3
   37    200.00  2021 09 24 14 51   48.37100  236.25000     3
   39     59.00  2021 09 24 14 51   48.46550  236.49400     3
   40     63.00  2021 09 24 14 51   48.45150  236.49500     3
   41    316.00  2021 09 24 14 51   48.42810  236.63400     2
   42    236.00  2021 09 24 14 51   48.56210  236.53400     2
   43    340.00  2021 09 24 14 51   48.45220  236.73300     5
   55     46.00  2021 09 24 14 51   48.44880  236.51401     3
   57    158.00  2021 09 24 14 51   48.42180  236.50500     3
   60     50.00  2021 09 24 14 51   48.43820  236.60400     1
   64     34.00  2021 09 24 14 51   48.50140  236.63901     4
   66     23.00  2021 09 24 14 51   48.52340  236.56700     4
   68     41.00  2021 09 24 14 51   48.56970  236.54700     4
   71     24.00  2021 09 24 14 51   48.53760  236.49899    11
   72    121.00  2021 09 24 14 51   48.29838  236.46838     5
   73     65.00  2021 09 24 14 51   48.45370  236.57899     1
   74     32.00  2021 09 24 14 51   48.44560  236.63901     1
   75     11.00  2021 09 24 14 51   48.42350  236.65300     1
   77     26.00  2021 09 24 14 51   48.46690  236.60800     1
   79      0.00  2021 09 24 14 51   48.47130  236.69299     1
   80    358.00  2021 09 24 14 51   48.48210  236.67000     1
   82    328.00  2021 09 24 14 51   48.46080  236.60699     1
   89     74.00  2021 09 24 14 51   49.31120  235.67300    21
   90      4.00  2021 09 24 14 51   48.45710  236.56300     1
   93     43.00  2021 09 24 14 51   48.65380  236.37601    14
   95    259.00  2021 09 24 14 51   49.34850  235.59900    21
   96     47.00  2021 09 24 14 51   49.44590  235.30099    21
   98    107.00  2021 09 24 14 51   48.41610  236.67000     1
   99    278.00  2021 09 24 14 51   48.51100  236.53600    11
  100    340.00  2021 09 24 14 51   48.48110  236.48700    11
  101    170.00  2021 09 24 14 51   48.51010  236.47600    11
  104    360.00  2021 09 24 14 51   48.42810  236.47099     3
  105    267.00  2021 09 24 14 51   48.55650  235.60100     3
  108    222.00  2021 09 24 14 51   49.24600  235.19600    23
  110    157.00  2021 09 24 14 51   49.27380  235.80901    21
  112    263.00  2021 09 24 14 51   48.79430  236.82700    40
  115    360.00  2021 09 24 14 51   48.43210  236.59801     5
  119     60.00  2021 09 24 14 51   48.90720  236.46100    40
  121    134.00  2021 09 24 14 51   48.85540  236.49300    40
  122    118.00  2021 09 24 14 51   48.85030  236.49400    40
  125     11.00  2021 09 24 14 51   48.43350  236.67599     5
  132    339.00  2021 09 24 14 51   48.61540  236.36900    14
  133     40.00  2021 09 24 14 51   48.65230  236.34900    10
  139    352.00  2021 09 24 14 51   49.23280  236.03200    20
  143      5.00  2021 09 24 14 51   48.46230  236.69099     5
  144    331.00  2021 09 24 14 51   48.43940  236.64999     5
  162    304.00  2021 09 24 14 51   48.45240  236.67101     5
  163    358.00  2021 09 24 14 51   48.46480  236.68600     5
  165    222.00  2021 09 24 14 51   49.26100  235.19299    60
  166    311.00  2021 09 24 14 51   49.22710  235.20799    60
  177     91.00  2021 09 24 14 51   48.98460  236.17200    20
  178    335.00  2021 09 24 14 51   64.06090  225.57001    81
  179    146.00  2021 09 24 14 51   49.78270  233.94901    70
  182    360.00  2021 09 24 14 51   49.20990  236.04500    23
  188     18.00  2021 09 24 14 51   48.66570  236.58200     4
  189     84.00  2021 09 24 14 51   49.70950  235.08600    30
  190    150.00  2021 09 24 14 51   49.68220  235.00101    30
  191    136.00  2021 09 24 14 51   49.62120  234.96700    30
  192    166.00  2021 09 24 14 51   49.53550  235.18401    30
  197     63.00  2021 09 24 14 51   48.52190  236.58000     5
  199     78.00  2021 09 24 14 51   48.39510  236.69501     5
  200    287.00  2021 09 24 14 51   48.48800  236.67300     5
  204    115.00  2021 09 24 14 51   49.94130  234.80499    35
  205    105.00  2021 09 24 14 51   49.96700  234.78400    35
  206    122.00  2021 09 24 14 51   49.97270  234.76100    35
  207     65.00  2021 09 24 14 51   49.98010  234.75500    35
  208     81.00  2021 09 24 14 51   50.02360  234.72600    35
  210    120.00  2021 09 24 14 51   50.02080  234.75400    35
  211     69.00  2021 09 24 14 51   50.05990  235.01700    35
  212    309.00  2021 09 24 14 51   50.37740  234.04201    35
  215     20.00  2021 09 24 14 51   48.46180  236.59500     5
  216    223.00  2021 09 24 14 51   49.17440  237.15300    80
  217    335.00  2021 09 24 14 51   48.45190  236.70399     5
  218    360.00  2021 09 24 14 51   49.32200  235.65700    21
  227     50.00  2021 09 24 14 51   48.52524  236.61111     5
  228      3.00  2021 09 24 14 51   48.43951  236.62003     5
  234     34.00  2021 09 24 14 51   48.88760  236.62149    45
  235    111.00  2021 09 24 14 51   48.92833  236.53203    45
  236    232.00  2021 09 24 14 51   48.90087  236.65764    45
  238    107.00  2021 09 24 14 51   48.88512  236.64799    45
  273    135.00  2021 09 24 14 51   48.70929  236.58862    40
solar
    1    576.00  2021 09 24 14 51   48.46990  236.68100     5
    3    596.00  2021 09 24 14 51   48.47760  236.58299     1
    4    568.00  2021 09 24 14 51   48.44080  236.66100     1
    5    551.00  2021 09 24 14 51   48.46600  236.66299     1
    6    506.00  2021 09 24 14 51   48.46160  236.59200     1
    7    518.00  2021 09 24 14 51   48.46550  236.67900     1
    9    588.00  2021 09 24 14 51   48.46510  236.70000     1
   10    540.00  2021 09 24 14 51   48.42530  236.59500     1
   11    565.00  2021 09 24 14 51   48.41690  236.62000     1
   12    547.00  2021 09 24 14 51   48.43460  236.61200     1
   13    540.00  2021 09 24 14 51   48.45330  236.57401     1
   16    570.00  2021 09 24 14 51   48.45190  236.60699     1
   17    553.00  2021 09 24 14 51   48.46630  236.55800     1
   18    555.00  2021 09 24 14 51   48.48650  236.67599     1
   19    588.00  2021 09 24 14 51   48.41820  236.68600     1
   20    537.00  2021 09 24 14 51   48.47880  236.63499     1
   21    594.00  2021 09 24 14 51   48.47440  236.61900     1
   22    551.00  2021 09 24 14 51   48.45340  236.64101     1
   24    532.00  2021 09 24 14 51   48.48490  236.68600     1
   25    555.00  2021 09 24 14 51   48.44510  236.67200     1
   26    577.00  2021 09 24 14 51   48.45620  236.66200     1
   27    566.00  2021 09 24 14 51   48.47690  236.60899     1
   29    619.00  2021 09 24 14 51   48.43290  236.64900     1
   31    582.00  2021 09 24 14 51   48.42050  236.51401     3
   32    578.00  2021 09 24 14 51   48.43560  236.51401     3
   33    510.00  2021 09 24 14 51   48.46830  236.64101     1
   34    530.00  2021 09 24 14 51   48.45290  236.52299     3
   35    488.00  2021 09 24 14 51   48.44280  236.50400     3
   37    554.00  2021 09 24 14 51   48.37100  236.25000     3
   39    555.00  2021 09 24 14 51   48.46550  236.49400     3
   40    543.00  2021 09 24 14 51   48.45150  236.49500     3
   42    600.00  2021 09 24 14 51   48.56210  236.53400     2
   55    582.00  2021 09 24 14 51   48.44880  236.51401     3
   57    550.00  2021 09 24 14 51   48.42180  236.50500     3
   60    592.00  2021 09 24 14 51   48.43820  236.60400     1
   64    585.00  2021 09 24 14 51   48.50140  236.63901     4
   66    535.00  2021 09 24 14 51   48.52340  236.56700     4
   68    573.00  2021 09 24 14 51   48.56970  236.54700     4
   71    101.00  2021 09 24 14 51   48.53760  236.49899    11
   72    537.00  2021 09 24 14 51   48.29838  236.46838     5
   73    512.00  2021 09 24 14 51   48.45370  236.57899     1
   74    564.00  2021 09 24 14 51   48.44560  236.63901     1
   75    581.00  2021 09 24 14 51   48.42350  236.65300     1
   77    516.00  2021 09 24 14 51   48.46690  236.60800     1
   79    529.00  2021 09 24 14 51   48.47130  236.69299     1
   80    519.00  2021 09 24 14 51   48.48210  236.67000     1
   82    546.00  2021 09 24 14 51   48.46080  236.60699     1
   89    336.00  2021 09 24 14 51   49.31120  235.67300    21
   90    522.00  2021 09 24 14 51   48.45710  236.56300     1
   93     90.00  2021 09 24 14 51   48.65380  236.37601    14
   95    331.00  2021 09 24 14 51   49.34850  235.59900    21
   96    640.00  2021 09 24 14 51   49.44590  235.30099    21
   98    581.00  2021 09 24 14 51   48.41610  236.67000     1
   99     51.00  2021 09 24 14 51   48.51100  236.53600    11
  100    487.00  2021 09 24 14 51   48.48110  236.48700    11
  101    577.00  2021 09 24 14 51   48.51010  236.47600    11
  104    565.00  2021 09 24 14 51   48.42810  236.47099     3
  105    594.00  2021 09 24 14 51   48.55650  235.60100     3
  107    527.00  2021 09 24 14 51   48.46610  236.50400     3
  108    628.00  2021 09 24 14 51   49.24600  235.19600    23
  110    340.00  2021 09 24 14 51   49.27380  235.80901    21
  112    525.00  2021 09 24 14 51   48.79430  236.82700    40
  115    595.00  2021 09 24 14 51   48.43210  236.59801     5
  119    704.00  2021 09 24 14 51   48.90720  236.46100    40
  121    661.00  2021 09 24 14 51   48.85540  236.49300    40
  122    668.00  2021 09 24 14 51   48.85030  236.49400    40
  125    555.00  2021 09 24 14 51   48.43350  236.67599     5
  132     60.00  2021 09 24 14 51   48.61540  236.36900    14
  133    611.00  2021 09 24 14 51   48.65230  236.34900    10
  134    563.00  2021 09 24 14 51   48.46480  236.62601     5
  139    262.00  2021 09 24 14 51   49.23280  236.03200    20
  143    544.00  2021 09 24 14 51   48.46230  236.69099     5
  144    533.00  2021 09 24 14 51   48.43940  236.64999     5
  162    559.00  2021 09 24 14 51   48.45240  236.67101     5
  163    561.00  2021 09 24 14 51   48.46480  236.68600     5
  165    619.00  2021 09 24 14 51   49.26100  235.19299    60
  166    587.00  2021 09 24 14 51   49.22710  235.20799    60
  177    406.00  2021 09 24 14 51   48.98460  236.17200    20
  178     35.00  2021 09 24 14 51   64.06090  225.57001    81
  179    471.00  2021 09 24 14 51   49.78270  233.94901    70
  182    347.00  2021 09 24 14 51   49.20990  236.04500    23
  188    490.00  2021 09 24 14 51   48.66570  236.58200     4
  189    378.00  2021 09 24 14 51   49.70950  235.08600    30
  190    524.00  2021 09 24 14 51   49.68220  235.00101    30
  191    597.00  2021 09 24 14 51   49.62120  234.96700    30
  192    659.00  2021 09 24 14 51   49.53550  235.18401    30
  197    563.00  2021 09 24 14 51   48.52190  236.58000     5
  199    574.00  2021 09 24 14 51   48.39510  236.69501     5
  200    577.00  2021 09 24 14 51   48.48800  236.67300     5
  204    708.00  2021 09 24 14 51   49.94130  234.80499    35
  205    151.00  2021 09 24 14 51   49.96700  234.78400    35
  206    177.00  2021 09 24 14 51   49.97270  234.76100    35
  207    253.00  2021 09 24 14 51   49.98010  234.75500    35
  208    584.00  2021 09 24 14 51   50.02360  234.72600    35
  210    569.00  2021 09 24 14 51   50.02080  234.75400    35
  211    589.00  2021 09 24 14 51   50.05990  235.01700    35
  212    578.00  2021 09 24 14 51   50.37740  234.04201    35
  215    554.00  2021 09 24 14 51   48.46180  236.59500     5
  216    391.00  2021 09 24 14 51   49.17440  237.15300    80
  217    674.00  2021 09 24 14 51   48.45190  236.70399     5
  218    241.00  2021 09 24 14 51   49.32200  235.65700    21
  227    552.00  2021 09 24 14 51   48.52524  236.61111     5
  228    569.00  2021 09 24 14 51   48.43951  236.62003     5
  234    102.00  2021 09 24 14 51   48.88760  236.62149    45
  235    535.00  2021 09 24 14 51   48.92833  236.53203    45
  236    459.00  2021 09 24 14 51   48.90087  236.65764    45
  273    597.00  2021 09 24 14 51   48.70929  236.58862    40
uv
    3      2.70  2021 09 24 14 51   48.47760  236.58299     1
    4      1.50  2021 09 24 14 51   48.44080  236.66100     1
    5      2.60  2021 09 24 14 51   48.46600  236.66299     1
    6      2.70  2021 09 24 14 51   48.46160  236.59200     1
    7      2.60  2021 09 24 14 51   48.46550  236.67900     1
    9      3.00  2021 09 24 14 51   48.46510  236.70000     1
   10      1.40  2021 09 24 14 51   48.42530  236.59500     1
   11      3.70  2021 09 24 14 51   48.41690  236.62000     1
   12      4.80  2021 09 24 14 51   48.43460  236.61200     1
   16      2.90  2021 09 24 14 51   48.45190  236.60699     1
   17      2.00  2021 09 24 14 51   48.46630  236.55800     1
   18      3.10  2021 09 24 14 51   48.48650  236.67599     1
   19      2.90  2021 09 24 14 51   48.41820  236.68600     1
   20      1.10  2021 09 24 14 51   48.47880  236.63499     1
   21      3.60  2021 09 24 14 51   48.47440  236.61900     1
   22      3.00  2021 09 24 14 51   48.45340  236.64101     1
   24      2.00  2021 09 24 14 51   48.48490  236.68600     1
   25      2.70  2021 09 24 14 51   48.44510  236.67200     1
   26      2.70  2021 09 24 14 51   48.45620  236.66200     1
   27      3.40  2021 09 24 14 51   48.47690  236.60899     1
   29      3.00  2021 09 24 14 51   48.43290  236.64900     1
   31      3.40  2021 09 24 14 51   48.42050  236.51401     3
   32      3.90  2021 09 24 14 51   48.43560  236.51401     3
   33      3.50  2021 09 24 14 51   48.46830  236.64101     1
   34      3.00  2021 09 24 14 51   48.45290  236.52299     3
   35      4.40  2021 09 24 14 51   48.44280  236.50400     3
   37      2.50  2021 09 24 14 51   48.37100  236.25000     3
   39      1.90  2021 09 24 14 51   48.46550  236.49400     3
   40      1.50  2021 09 24 14 51   48.45150  236.49500     3
   42      3.20  2021 09 24 14 51   48.56210  236.53400     2
   55      2.10  2021 09 24 14 51   48.44880  236.51401     3
   60      2.60  2021 09 24 14 51   48.43820  236.60400     1
   64      1.10  2021 09 24 14 51   48.50140  236.63901     4
   66      2.30  2021 09 24 14 51   48.52340  236.56700     4
   68      3.50  2021 09 24 14 51   48.56970  236.54700     4
   71      1.70  2021 09 24 14 51   48.53760  236.49899    11
   72      0.70  2021 09 24 14 51   48.29838  236.46838     5
   73      0.00  2021 09 24 14 51   48.45370  236.57899     1
   74      3.40  2021 09 24 14 51   48.44560  236.63901     1
   75      1.50  2021 09 24 14 51   48.42350  236.65300     1
   77      2.70  2021 09 24 14 51   48.46690  236.60800     1
   79      3.40  2021 09 24 14 51   48.47130  236.69299     1
   80      2.70  2021 09 24 14 51   48.48210  236.67000     1
   82      2.90  2021 09 24 14 51   48.46080  236.60699     1
   89      2.50  2021 09 24 14 51   49.31120  235.67300    21
   90      2.30  2021 09 24 14 51   48.45710  236.56300     1
   93      1.90  2021 09 24 14 51   48.65380  236.37601    14
   95      2.30  2021 09 24 14 51   49.34850  235.59900    21
   96      3.50  2021 09 24 14 51   49.44590  235.30099    21
   98      3.50  2021 09 24 14 51   48.41610  236.67000     1
   99      0.80  2021 09 24 14 51   48.51100  236.53600    11
  101      3.30  2021 09 24 14 51   48.51010  236.47600    11
  104      1.50  2021 09 24 14 51   48.42810  236.47099     3
  105      3.00  2021 09 24 14 51   48.55650  235.60100     3
  108      3.00  2021 09 24 14 51   49.24600  235.19600    23
  110      2.50  2021 09 24 14 51   49.27380  235.80901    21
  112      2.10  2021 09 24 14 51   48.79430  236.82700    40
  115      2.70  2021 09 24 14 51   48.43210  236.59801     5
  119      4.80  2021 09 24 14 51   48.90720  236.46100    40
  121      2.80  2021 09 24 14 51   48.85540  236.49300    40
  122      3.00  2021 09 24 14 51   48.85030  236.49400    40
  125      3.40  2021 09 24 14 51   48.43350  236.67599     5
  132      0.00  2021 09 24 14 51   48.61540  236.36900    14
  134      3.10  2021 09 24 14 51   48.46480  236.62601     5
  139      2.00  2021 09 24 14 51   49.23280  236.03200    20
  143      3.70  2021 09 24 14 51   48.46230  236.69099     5
  144      3.30  2021 09 24 14 51   48.43940  236.64999     5
  162      3.30  2021 09 24 14 51   48.45240  236.67101     5
  163      6.00  2021 09 24 14 51   48.46480  236.68600     5
  165      2.80  2021 09 24 14 51   49.26100  235.19299    60
  166      3.20  2021 09 24 14 51   49.22710  235.20799    60
  177      2.10  2021 09 24 14 51   48.98460  236.17200    20
  179      2.90  2021 09 24 14 51   49.78270  233.94901    70
  182      2.00  2021 09 24 14 51   49.20990  236.04500    23
  188      2.70  2021 09 24 14 51   48.66570  236.58200     4
  189      2.70  2021 09 24 14 51   49.70950  235.08600    30
  190      3.00  2021 09 24 14 51   49.68220  235.00101    30
  191      3.00  2021 09 24 14 51   49.62120  234.96700    30
  192      3.80  2021 09 24 14 51   49.53550  235.18401    30
  197      3.40  2021 09 24 14 51   48.52190  236.58000     5
  199      3.00  2021 09 24 14 51   48.39510  236.69501     5
  200      1.40  2021 09 24 14 51   48.48800  236.67300     5
  204      3.50  2021 09 24 14 51   49.94130  234.80499    35
  205      2.20  2021 09 24 14 51   49.96700  234.78400    35
  206      2.50  2021 09 24 14 51   49.97270  234.76100    35
  207      2.60  2021 09 24 14 51   49.98010  234.75500    35
  208      3.40  2021 09 24 14 51   50.02360  234.72600    35
  210      3.60  2021 09 24 14 51   50.02080  234.75400    35
  211      3.80  2021 09 24 14 51   50.05990  235.01700    35
  212      2.20  2021 09 24 14 51   50.37740  234.04201    35
  215      3.40  2021 09 24 14 51   48.46180  236.59500     5
  217      3.60  2021 09 24 14 51   48.45190  236.70399     5
  218      2.20  2021 09 24 14 51   49.32200  235.65700    21
  227      2.40  2021 09 24 14 51   48.52524  236.61111     5
  228      0.00  2021 09 24 14 51   48.43951  236.62003     5
  234      1.10  2021 09 24 14 51   48.88760  236.62149    45
  235      2.20  2021 09 24 14 51   48.92833  236.53203    45
  236      2.20  2021 09 24 14 51   48.90087  236.65764    45
  273      3.50  2021 09 24 14 51   48.70929  236.58862    40
raintotal
    1      0.00  2021 09 24 14 51   48.46990  236.68100     5
    3      0.20  2021 09 24 14 51   48.47760  236.58299     1
    4      0.00  2021 09 24 14 51   48.44080  236.66100     1
    5      0.00  2021 09 24 14 51   48.46600  236.66299     1
    6      0.00  2021 09 24 14 51   48.46160  236.59200     1
    7      0.00  2021 09 24 14 51   48.46550  236.67900     1
    9      0.00  2021 09 24 14 51   48.46510  236.70000     1
   10      0.00  2021 09 24 14 51   48.42530  236.59500     1
   11      0.00  2021 09 24 14 51   48.41690  236.62000     1
   12      0.00  2021 09 24 14 51   48.43460  236.61200     1
   13      0.00  2021 09 24 14 51   48.45330  236.57401     1
   14      0.00  2021 09 24 14 51   48.43590  236.68900     1
   15      0.00  2021 09 24 14 51   48.41530  236.65199     1
   16      0.00  2021 09 24 14 51   48.45190  236.60699     1
   17      0.00  2021 09 24 14 51   48.46630  236.55800     1
   18      0.00  2021 09 24 14 51   48.48650  236.67599     1
   19      0.00  2021 09 24 14 51   48.41820  236.68600     1
   20      0.00  2021 09 24 14 51   48.47880  236.63499     1
   21      0.00  2021 09 24 14 51   48.47440  236.61900     1
   22      0.00  2021 09 24 14 51   48.45340  236.64101     1
   24      0.00  2021 09 24 14 51   48.48490  236.68600     1
   25      0.00  2021 09 24 14 51   48.44510  236.67200     1
   26      0.00  2021 09 24 14 51   48.45620  236.66200     1
   27      0.00  2021 09 24 14 51   48.47690  236.60899     1
   29      0.00  2021 09 24 14 51   48.43290  236.64900     1
   31      0.00  2021 09 24 14 51   48.42050  236.51401     3
   32      0.20  2021 09 24 14 51   48.43560  236.51401     3
   33      0.00  2021 09 24 14 51   48.46830  236.64101     1
   34      0.20  2021 09 24 14 51   48.45290  236.52299     3
   35      0.00  2021 09 24 14 51   48.44280  236.50400     3
   37      0.20  2021 09 24 14 51   48.37100  236.25000     3
   39      0.00  2021 09 24 14 51   48.46550  236.49400     3
   40      0.20  2021 09 24 14 51   48.45150  236.49500     3
   42      0.00  2021 09 24 14 51   48.56210  236.53400     2
   43      0.00  2021 09 24 14 51   48.45220  236.73300     5
   55      0.00  2021 09 24 14 51   48.44880  236.51401     3
   56      0.00  2021 09 24 14 51   48.45720  236.45100     3
   57      0.00  2021 09 24 14 51   48.42180  236.50500     3
   60      0.00  2021 09 24 14 51   48.43820  236.60400     1
   62      0.00  2021 09 24 14 51   48.68040  236.54300     4
   64      0.20  2021 09 24 14 51   48.50140  236.63901     4
   66      0.00  2021 09 24 14 51   48.52340  236.56700     4
   68      0.20  2021 09 24 14 51   48.56970  236.54700     4
   71      0.00  2021 09 24 14 51   48.53760  236.49899    11
   72      0.00  2021 09 24 14 51   48.29838  236.46838     5
   73      0.00  2021 09 24 14 51   48.45370  236.57899     1
   74      0.00  2021 09 24 14 51   48.44560  236.63901     1
   75      0.00  2021 09 24 14 51   48.42350  236.65300     1
   77      0.00  2021 09 24 14 51   48.46690  236.60800     1
   79      0.00  2021 09 24 14 51   48.47130  236.69299     1
   80      0.00  2021 09 24 14 51   48.48210  236.67000     1
   82      0.00  2021 09 24 14 51   48.46080  236.60699     1
   85      0.00  2021 09 24 14 51   48.82900  235.94800    10
   89      0.00  2021 09 24 14 51   49.31120  235.67300    21
   90      0.00  2021 09 24 14 51   48.45710  236.56300     1
   93      0.00  2021 09 24 14 51   48.65380  236.37601    14
   95      0.00  2021 09 24 14 51   49.34850  235.59900    21
   96      0.00  2021 09 24 14 51   49.44590  235.30099    21
   98      0.20  2021 09 24 14 51   48.41610  236.67000     1
   99      0.00  2021 09 24 14 51   48.51100  236.53600    11
  100      0.00  2021 09 24 14 51   48.48110  236.48700    11
  101      0.00  2021 09 24 14 51   48.51010  236.47600    11
  104      0.00  2021 09 24 14 51   48.42810  236.47099     3
  105      0.20  2021 09 24 14 51   48.55650  235.60100     3
  107      0.00  2021 09 24 14 51   48.46610  236.50400     3
  110      0.00  2021 09 24 14 51   49.27380  235.80901    21
  111      0.00  2021 09 24 14 51   49.31490  235.68800    21
  112      0.00  2021 09 24 14 51   48.79430  236.82700    40
  115      0.00  2021 09 24 14 51   48.43210  236.59801     5
  119      0.00  2021 09 24 14 51   48.90720  236.46100    40
  120      0.00  2021 09 24 14 51   48.77670  236.55299    40
  121      0.20  2021 09 24 14 51   48.85540  236.49300    40
  122      0.00  2021 09 24 14 51   48.85030  236.49400    40
  125      0.00  2021 09 24 14 51   48.43350  236.67599     5
  132      0.00  2021 09 24 14 51   48.61540  236.36900    14
  133      0.20  2021 09 24 14 51   48.65230  236.34900    10
  134      0.00  2021 09 24 14 51   48.46480  236.62601     5
  139      0.00  2021 09 24 14 51   49.23280  236.03200    20
  143      0.00  2021 09 24 14 51   48.46230  236.69099     5
  144      0.00  2021 09 24 14 51   48.43940  236.64999     5
  160      0.00  2021 09 24 14 51   48.65680  236.35699    14
  162      0.00  2021 09 24 14 51   48.45240  236.67101     5
  163      0.00  2021 09 24 14 51   48.46480  236.68600     5
  165      0.00  2021 09 24 14 51   49.26100  235.19299    60
  166      0.00  2021 09 24 14 51   49.22710  235.20799    60
  167      0.00  2021 09 24 14 51   49.15040  234.09500    60
  168      0.00  2021 09 24 14 51   48.93980  234.45500    60
  177      0.00  2021 09 24 14 51   48.98460  236.17200    20
  178      3.80  2021 09 24 14 51   64.06090  225.57001    81
  179      0.00  2021 09 24 14 51   49.78270  233.94901    70
  182      0.00  2021 09 24 14 51   49.20990  236.04500    23
  188      0.20  2021 09 24 14 51   48.66570  236.58200     4
  189      0.00  2021 09 24 14 51   49.70950  235.08600    30
  190      0.00  2021 09 24 14 51   49.68220  235.00101    30
  191      0.00  2021 09 24 14 51   49.62120  234.96700    30
  192      0.00  2021 09 24 14 51   49.53550  235.18401    30
  197      0.00  2021 09 24 14 51   48.52190  236.58000     5
  199      0.00  2021 09 24 14 51   48.39510  236.69501     5
  200      0.00  2021 09 24 14 51   48.48800  236.67300     5
  204      0.00  2021 09 24 14 51   49.94130  234.80499    35
  205      0.00  2021 09 24 14 51   49.96700  234.78400    35
  206      0.00  2021 09 24 14 51   49.97270  234.76100    35
  207      0.00  2021 09 24 14 51   49.98010  234.75500    35
  208      0.00  2021 09 24 14 51   50.02360  234.72600    35
  210      0.00  2021 09 24 14 51   50.02080  234.75400    35
  211      0.00  2021 09 24 14 51   50.05990  235.01700    35
  212      0.20  2021 09 24 14 51   50.37740  234.04201    35
  215      0.00  2021 09 24 14 51   48.46180  236.59500     5
  216      0.00  2021 09 24 14 51   49.17440  237.15300    80
  217      0.20  2021 09 24 14 51   48.45190  236.70399     5
  218      0.00  2021 09 24 14 51   49.32200  235.65700    21
  227      0.00  2021 09 24 14 51   48.52524  236.61111     5
  228      0.00  2021 09 24 14 51   48.43951  236.62003     5
  234      0.00  2021 09 24 14 51   48.88760  236.62149    45
  235      0.00  2021 09 24 14 51   48.92833  236.53203    45
  236      0.00  2021 09 24 14 51   48.90087  236.65764    45
  238      0.00  2021 09 24 14 51   48.88512  236.64799    45
  273      0.00  2021 09 24 14 51   48.70929  236.58862    40
Error 1055 : Expression #1 of SELECT list is not in GROUP BY clause and contains nonaggregated column 'meteo.sdata.timekey' which is not functionally dependent on columns in GROUP BY clause; this is incompatible with sql_mode=only_full_group_by
NumberStation Name